Time;durP1;ratioP1;P1;durP2;ratioP2;P2;SDS_P1;SDS_P2;PMS_P1;PMS_P2;Temp;Humidity;BMP_temperature;BMP_pressure;BME280_temperature;BME280_humidity;BME280_pressure;Samples;Min_cycle;Max_cycle;Signal;HPM_P1;HPM_P2
2022/06/29 00:00:11;;;;;;;2.72;1.20;;;20.30;90.60;;;;;;5097120;27;45322;-71
2022/06/29 00:02:38;;;;;;;3.83;1.10;;;19.80;85.70;;;;;;5101649;27;46620;-71
2022/06/29 00:05:07;;;;;;;2.25;1.20;;;18.40;91.20;;;;;;5102688;27;45336;-70
2022/06/29 00:07:35;;;;;;;1.98;1.10;;;18.00;93.40;;;;;;5097889;27;45343;-71
2022/06/29 00:10:01;;;;;;;5.63;1.20;;;17.80;94.20;;;;;;5102355;27;45463;-72
2022/06/29 00:12:28;;;;;;;4.07;1.10;;;17.80;94.40;;;;;;5101897;27;47613;-70
2022/06/29 00:14:55;;;;;;;1.40;1.05;;;17.70;95.00;;;;;;5101125;27;45705;-71
2022/06/29 00:17:22;;;;;;;5.13;1.27;;;17.70;95.10;;;;;;5101531;27;45288;-70
2022/06/29 00:19:49;;;;;;;4.43;1.27;;;17.70;95.60;;;;;;5103352;27;45386;-70
2022/06/29 00:22:17;;;;;;;3.15;1.45;;;17.60;95.20;;;;;;5104809;27;48441;-70
2022/06/29 00:24:44;;;;;;;8.57;1.65;;;17.20;96.20;;;;;;5102940;27;45436;-70
2022/06/29 00:27:11;;;;;;;3.72;1.60;;;16.70;98.90;;;;;;5093742;27;45431;-70
2022/06/29 00:29:38;;;;;;;4.13;1.77;;;16.50;99.90;;;;;;5095699;27;45288;-71
2022/06/29 00:32:05;;;;;;;4.10;1.50;;;16.40;99.90;;;;;;5102859;27;45257;-70
2022/06/29 00:34:32;;;;;;;4.65;1.55;;;16.00;99.90;;;;;;5097416;27;45452;-70
2022/06/29 00:36:59;;;;;;;6.55;1.50;;;16.00;99.90;;;;;;5094265;27;45400;-70
2022/06/29 00:39:28;;;;;;;7.95;1.33;;;16.10;99.90;;;;;;5100702;27;45434;-71
2022/06/29 00:41:55;;;;;;;3.58;1.35;;;16.20;99.90;;;;;;5101457;27;46381;-70
2022/06/29 00:44:22;;;;;;;5.20;1.58;;;16.30;99.90;;;;;;5103464;27;45384;-70
2022/06/29 00:46:50;;;;;;;6.57;1.30;;;16.30;99.90;;;;;;5093688;27;45399;-70
2022/06/29 00:49:19;;;;;;;3.75;1.45;;;16.30;99.90;;;;;;5102477;27;45260;-71
2022/06/29 00:51:53;;;;;;;4.05;1.20;;;16.50;99.90;;;;;;5100911;27;46090;-71
2022/06/29 00:54:23;;;;;;;5.40;1.40;;;16.70;99.90;;;;;;5102958;27;45272;-70
2022/06/29 00:56:51;;;;;;;5.03;1.20;;;16.70;99.90;;;;;;5092664;27;45475;-70
2022/06/29 00:59:22;;;;;;;4.78;1.52;;;16.60;99.90;;;;;;5100229;27;45390;-70
2022/06/29 01:01:49;;;;;;;3.70;1.40;;;16.50;99.90;;;;;;5099436;27;46647;-70
2022/06/29 01:04:16;;;;;;;3.17;1.58;;;16.50;99.90;;;;;;5101726;27;45745;-70
2022/06/29 01:06:44;;;;;;;2.47;1.40;;;16.40;99.90;;;;;;5102345;27;45266;-70
2022/06/29 01:09:11;;;;;;;2.72;1.33;;;16.40;99.90;;;;;;5101364;27;45306;-71
2022/06/29 01:11:38;;;;;;;4.22;1.40;;;16.40;99.90;;;;;;5102480;27;47747;-70
2022/06/29 01:14:06;;;;;;;4.03;1.50;;;16.50;99.90;;;;;;5097089;27;45380;-71
2022/06/29 01:16:33;;;;;;;5.45;1.63;;;16.50;99.90;;;;;;5099191;27;45556;-70
2022/06/29 01:19:00;;;;;;;4.03;1.40;;;16.50;99.90;;;;;;5102977;27;45253;-71
2022/06/29 01:21:30;;;;;;;2.28;1.20;;;16.50;99.90;;;;;;5102734;27;46523;-71
2022/06/29 01:23:58;;;;;;;8.05;1.40;;;16.50;99.90;;;;;;5102588;27;45251;-71
2022/06/29 01:26:25;;;;;;;4.95;1.50;;;16.50;99.90;;;;;;5099878;27;45699;-70
2022/06/29 01:28:53;;;;;;;5.90;1.75;;;16.40;99.90;;;;;;5102778;27;45354;-71
2022/06/29 01:31:20;;;;;;;7.75;1.33;;;16.40;99.90;;;;;;5102057;27;48026;-71
2022/06/29 01:33:49;;;;;;;2.97;1.40;;;16.40;99.90;;;;;;5102045;27;45299;-71
2022/06/29 01:36:17;;;;;;;2.42;1.23;;;16.40;99.90;;;;;;5099478;27;45455;-71
2022/06/29 01:38:44;;;;;;;3.50;1.30;;;16.50;99.90;;;;;;5101549;27;45434;-70
2022/06/29 01:41:13;;;;;;;2.90;1.40;;;16.60;99.90;;;;;;5100049;27;45386;-71
2022/06/29 01:43:40;;;;;;;3.40;1.20;;;16.60;99.90;;;;;;5101934;27;45278;-71
2022/06/29 01:46:08;;;;;;;6.82;1.52;;;16.70;99.90;;;;;;5099077;27;45387;-71
2022/06/29 01:48:35;;;;;;;3.92;1.45;;;16.70;99.90;;;;;;5099071;27;45267;-70
2022/06/29 01:51:02;;;;;;;4.10;1.45;;;16.70;99.90;;;;;;5100682;27;46284;-71
2022/06/29 01:53:29;;;;;;;3.38;1.58;;;16.80;99.90;;;;;;5094829;27;45409;-70
2022/06/29 01:55:56;;;;;;;3.47;1.30;;;16.40;99.90;;;;;;5098496;27;45395;-70
2022/06/29 01:58:25;;;;;;;4.38;1.20;;;16.20;99.90;;;;;;5096537;27;45325;-70
2022/06/29 02:00:51;;;;;;;4.78;1.30;;;15.90;99.90;;;;;;5101428;27;46267;-71
2022/06/29 02:03:18;;;;;;;5.53;1.33;;;15.70;99.90;;;;;;5101861;27;45243;-70
2022/06/29 02:05:45;;;;;;;3.67;1.27;;;15.70;99.90;;;;;;5103143;27;45212;-70
2022/06/29 02:08:12;;;;;;;2.30;1.00;;;15.80;99.90;;;;;;5098495;27;45701;-71
2022/06/29 02:10:39;;;;;;;4.75;1.30;;;15.60;99.90;;;;;;5100257;27;48045;-70
2022/06/29 02:13:06;;;;;;;5.07;1.20;;;15.50;99.90;;;;;;5101880;27;45363;-70
2022/06/29 02:15:34;;;;;;;6.30;1.90;;;15.40;99.90;;;;;;5100872;27;45545;-71
2022/06/29 02:18:02;;;;;;;4.85;1.63;;;15.10;99.90;;;;;;5093458;27;45649;-71
2022/06/29 02:20:29;;;;;;;5.50;1.50;;;15.10;99.90;;;;;;5103370;27;47503;-71
2022/06/29 02:22:56;;;;;;;2.40;1.23;;;15.20;99.90;;;;;;5105275;27;45325;-70
2022/06/29 02:25:23;;;;;;;5.40;1.45;;;15.10;99.90;;;;;;5104225;27;45456;-70
2022/06/29 02:27:49;;;;;;;2.42;1.10;;;15.20;99.90;;;;;;5103936;27;45540;-71
2022/06/29 02:30:17;;;;;;;5.90;1.55;;;15.30;99.90;;;;;;5103029;27;48213;-70
2022/06/29 02:35:31;;;;;;;2.22;1.60;;;15.50;99.90;;;;;;5101318;27;45448;-71
2022/06/29 02:37:58;;;;;;;2.00;1.38;;;15.20;99.90;;;;;;5104397;27;45520;-70
2022/06/29 02:40:25;;;;;;;3.58;1.60;;;15.20;99.90;;;;;;5102809;27;47508;-70
2022/06/29 02:42:51;;;;;;;8.60;1.73;;;15.40;99.90;;;;;;5103963;27;45846;-70
2022/06/29 02:45:18;;;;;;;4.40;1.88;;;15.40;99.90;;;;;;5104403;27;45424;-70
2022/06/29 02:47:46;;;;;;;2.53;1.27;;;15.50;99.90;;;;;;5105208;27;45379;-70
2022/06/29 02:50:13;;;;;;;5.60;1.65;;;15.60;99.90;;;;;;5103601;27;46578;-70
2022/06/29 02:52:40;;;;;;;3.60;1.30;;;15.40;99.90;;;;;;5103523;27;46268;-71
2022/06/29 02:55:07;;;;;;;4.22;1.55;;;15.30;99.90;;;;;;5102067;27;45454;-71
2022/06/29 02:57:34;;;;;;;4.65;1.60;;;15.40;99.90;;;;;;5102827;27;45256;-70
2022/06/29 03:00:01;;;;;;;2.47;1.25;;;15.50;99.90;;;;;;5100206;27;47678;-71
2022/06/29 03:02:28;;;;;;;3.03;1.30;;;15.40;99.90;;;;;;5099821;27;46275;-70
2022/06/29 03:04:56;;;;;;;2.55;1.50;;;15.40;99.90;;;;;;5104038;27;45301;-70
2022/06/29 03:07:23;;;;;;;3.38;1.60;;;15.40;99.90;;;;;;5097556;27;45707;-70
2022/06/29 03:09:49;;;;;;;4.28;1.73;;;15.40;99.90;;;;;;5100337;27;45497;-70
2022/06/29 03:12:16;;;;;;;3.03;1.50;;;15.40;99.90;;;;;;5101751;27;45489;-70
2022/06/29 03:14:43;;;;;;;3.63;1.50;;;15.50;99.90;;;;;;5103544;27;45288;-70
2022/06/29 03:17:10;;;;;;;4.57;1.65;;;15.60;99.90;;;;;;5104698;27;45587;-70
2022/06/29 03:19:36;;;;;;;3.30;1.38;;;15.70;99.90;;;;;;5103613;27;46570;-71
2022/06/29 03:22:05;;;;;;;4.05;1.67;;;15.70;99.90;;;;;;5105122;27;45426;-70
2022/06/29 03:24:31;;;;;;;3.97;1.77;;;15.70;99.90;;;;;;5104913;27;45449;-71
2022/06/29 03:26:58;;;;;;;4.82;1.38;;;15.80;99.90;;;;;;5102745;27;45556;-70
2022/06/29 03:29:25;;;;;;;3.75;1.50;;;15.50;99.90;;;;;;5103084;27;46429;-71
2022/06/29 03:31:52;;;;;;;5.93;1.60;;;15.00;99.90;;;;;;5095008;27;45526;-71
2022/06/29 03:34:19;;;;;;;9.35;2.03;;;15.00;99.90;;;;;;5103948;27;45484;-71
2022/06/29 03:36:45;;;;;;;4.22;1.58;;;15.10;99.90;;;;;;5099840;27;45369;-70
2022/06/29 03:39:13;;;;;;;5.50;2.00;;;15.20;99.90;;;;;;5103601;27;46101;-71
2022/06/29 03:41:40;;;;;;;4.63;1.83;;;15.30;99.90;;;;;;5103210;27;45424;-71
2022/06/29 03:44:07;;;;;;;4.03;1.70;;;15.40;99.90;;;;;;5104216;27;45441;-71
2022/06/29 03:46:34;;;;;;;7.20;1.98;;;15.40;99.90;;;;;;5099765;27;45670;-71
2022/06/29 03:49:00;;;;;;;4.35;2.03;;;15.20;99.90;;;;;;5102023;27;47243;-71
2022/06/29 03:51:27;;;;;;;5.72;1.50;;;15.10;99.90;;;;;;5103592;27;45661;-70
2022/06/29 03:53:54;;;;;;;9.02;2.10;;;15.00;99.90;;;;;;5104271;27;45278;-70
2022/06/29 03:56:22;;;;;;;5.35;2.42;;;14.90;99.90;;;;;;5103383;27;45412;-70
2022/06/29 03:58:49;;;;;;;8.05;2.30;;;15.00;99.90;;;;;;5100892;27;48087;-70
2022/06/29 04:01:15;;;;;;;21.85;3.00;;;15.00;99.90;;;;;;5102530;27;45762;-70
2022/06/29 04:03:42;;;;;;;7.00;2.13;;;14.90;99.90;;;;;;5103939;27;45267;-71
2022/06/29 04:06:10;;;;;;;15.13;2.75;;;14.80;99.90;;;;;;5103215;27;45281;-71
2022/06/29 04:08:38;;;;;;;13.70;2.30;;;14.70;99.90;;;;;;5102968;27;45423;-70
2022/06/29 04:11:48;;;;;;;9.38;2.25;;;14.80;99.90;;;;;;5099977;27;45363;-71
2022/06/29 04:13:53;;;;;;;12.88;2.88;;;15.00;99.90;;;;;;5099024;27;45541;-70
2022/06/29 04:16:20;;;;;;;7.88;2.53;;;15.20;99.90;;;;;;5101099;27;45272;-70
2022/06/29 04:18:47;;;;;;;8.88;2.45;;;15.40;99.90;;;;;;5100129;27;45307;-71
2022/06/29 04:21:14;;;;;;;7.32;1.98;;;15.60;99.90;;;;;;5102038;27;45327;-71
2022/06/29 04:23:41;;;;;;;7.85;2.25;;;15.70;99.90;;;;;;5102729;27;45453;-70
2022/06/29 04:26:08;;;;;;;7.43;2.08;;;15.90;99.90;;;;;;5102334;27;45462;-70
2022/06/29 04:28:34;;;;;;;5.43;2.22;;;15.90;99.90;;;;;;5103382;27;47178;-70
2022/06/29 04:31:03;;;;;;;3.83;1.92;;;16.00;99.90;;;;;;5101389;27;45397;-71
2022/06/29 04:33:30;;;;;;;8.13;2.22;;;16.00;99.90;;;;;;5097353;27;45337;-70
2022/06/29 04:36:00;;;;;;;4.47;1.90;;;16.10;99.90;;;;;;5100976;27;45530;-70
2022/06/29 04:38:26;;;;;;;6.03;1.88;;;16.30;99.90;;;;;;5101467;27;46580;-70
2022/06/29 04:40:53;;;;;;;8.95;1.90;;;16.30;99.90;;;;;;5098756;27;45480;-71
2022/06/29 04:43:20;;;;;;;6.82;1.60;;;16.30;99.90;;;;;;5098544;27;45433;-70
2022/06/29 04:48:32;;;;;;;8.57;2.13;;;16.10;99.90;;;;;;5099671;27;45917;-70
2022/06/29 04:50:59;;;;;;;2.67;1.55;;;16.40;99.90;;;;;;5102348;27;45729;-71
2022/06/29 04:53:26;;;;;;;4.88;1.90;;;16.20;99.90;;;;;;5096596;27;45334;-71
2022/06/29 04:55:53;;;;;;;6.63;1.95;;;16.00;99.90;;;;;;5101340;27;45557;-71
2022/06/29 04:58:19;;;;;;;8.40;1.83;;;16.00;99.90;;;;;;5094928;27;48710;-70
2022/06/29 05:00:46;;;;;;;4.78;1.90;;;16.10;99.90;;;;;;5102773;27;45571;-71
2022/06/29 05:03:13;;;;;;;6.55;2.20;;;16.10;99.90;;;;;;5103507;27;45248;-71
2022/06/29 05:05:42;;;;;;;7.18;2.15;;;16.10;99.90;;;;;;5098752;27;45358;-70
2022/06/29 05:08:09;;;;;;;11.23;2.95;;;16.10;99.90;;;;;;5091713;27;46597;-71
2022/06/29 05:10:35;;;;;;;5.53;2.08;;;16.10;99.90;;;;;;5102190;27;45450;-70
2022/06/29 05:13:02;;;;;;;7.25;2.40;;;16.20;99.90;;;;;;5102934;27;45413;-71
2022/06/29 05:15:29;;;;;;;4.95;1.73;;;16.50;99.90;;;;;;5102005;27;45189;-70
2022/06/29 05:17:56;;;;;;;8.93;2.28;;;16.80;99.90;;;;;;5101455;27;47061;-70
2022/06/29 05:20:22;;;;;;;7.57;2.38;;;17.00;99.90;;;;;;5100906;27;45327;-71
2022/06/29 05:22:52;;;;;;;6.28;1.98;;;17.00;99.90;;;;;;5102309;27;45523;-70
2022/06/29 05:25:19;;;;;;;7.60;2.42;;;17.00;99.90;;;;;;5097550;27;45597;-70
2022/06/29 05:27:46;;;;;;;3.85;1.90;;;17.20;99.90;;;;;;5099734;27;48664;-71
2022/06/29 05:30:14;;;;;;;2.78;1.63;;;17.60;99.90;;;;;;5100561;27;45482;-71
2022/06/29 05:32:41;;;;;;;3.75;1.98;;;17.80;99.90;;;;;;5101842;27;45454;-71
2022/06/29 05:35:09;;;;;;;3.28;1.85;;;17.90;99.90;;;;;;5098740;27;45691;-70
2022/06/29 05:37:37;;;;;;;4.88;1.83;;;18.30;99.90;;;;;;5096006;27;45379;-69
2022/06/29 05:40:06;;;;;;;1.88;1.33;;;18.30;99.90;;;;;;5092209;27;45438;-71
2022/06/29 05:42:34;;;;;;;3.50;1.50;;;19.00;99.90;;;;;;5095301;27;45251;-71
2022/06/29 05:45:01;;;;;;;5.95;1.98;;;19.50;99.80;;;;;;5099024;27;45523;-70
2022/06/29 05:47:28;;;;;;;1.83;1.13;;;19.90;97.00;;;;;;5096707;27;46320;-70
2022/06/29 05:49:57;;;;;;;4.93;2.10;;;20.10;97.80;;;;;;5094647;27;46549;-71
2022/06/29 05:52:24;;;;;;;7.15;2.03;;;20.10;97.20;;;;;;5096680;27;45310;-71
2022/06/29 05:54:51;;;;;;;7.38;2.38;;;20.30;95.40;;;;;;5095310;27;45394;-71
2022/06/29 05:57:19;;;;;;;9.82;2.47;;;20.30;96.70;;;;;;5099483;27;47092;-71
2022/06/29 05:59:46;;;;;;;7.32;2.45;;;20.00;97.10;;;;;;5099589;27;45444;-71
2022/06/29 06:02:13;;;;;;;2.25;1.17;;;20.00;97.00;;;;;;5097250;27;45484;-71
2022/06/29 06:04:40;;;;;;;3.30;1.10;;;20.20;96.60;;;;;;5100481;27;45489;-71
2022/06/29 06:07:08;;;;;;;3.05;1.88;;;20.30;96.60;;;;;;5101902;27;46305;-70
2022/06/29 06:09:35;;;;;;;2.60;1.27;;;20.30;96.30;;;;;;5097489;27;45461;-70
2022/06/29 06:12:02;;;;;;;4.03;2.03;;;20.50;95.90;;;;;;5103468;27;45603;-70
2022/06/29 06:14:30;;;;;;;3.45;2.03;;;20.50;95.40;;;;;;5098336;27;45560;-71
2022/06/29 06:16:57;;;;;;;6.78;2.20;;;20.60;95.60;;;;;;5104741;27;45398;-71
2022/06/29 06:19:24;;;;;;;1.48;1.10;;;20.70;94.60;;;;;;5099845;27;45399;-70
2022/06/29 06:21:50;;;;;;;3.40;1.58;;;20.80;95.30;;;;;;5104378;27;45518;-71
2022/06/29 06:24:17;;;;;;;3.88;1.10;;;20.90;94.90;;;;;;5097950;27;45502;-71
2022/06/29 06:26:44;;;;;;;2.15;1.30;;;20.90;95.00;;;;;;5090270;27;47287;-72
2022/06/29 06:29:11;;;;;;;15.15;1.92;;;20.90;94.80;;;;;;5091736;27;45480;-70
2022/06/29 06:31:39;;;;;;;2.40;1.00;;;20.90;95.30;;;;;;5099970;27;45613;-71
2022/06/29 06:34:05;;;;;;;1.20;1.00;;;20.90;95.10;;;;;;5098159;27;45633;-71
2022/06/29 06:36:32;;;;;;;2.45;1.13;;;21.00;94.80;;;;;;5098804;27;46610;-71
2022/06/29 06:38:59;;;;;;;3.50;1.27;;;21.10;94.50;;;;;;5098053;27;45872;-70
2022/06/29 06:41:25;;;;;;;1.83;1.20;;;21.20;94.50;;;;;;5094093;27;45385;-70
2022/06/29 06:43:53;;;;;;;3.55;1.33;;;21.20;93.50;;;;;;5093943;27;45412;-70
2022/06/29 06:46:20;;;;;;;4.28;1.70;;;21.10;94.20;;;;;;5098348;27;47632;-71
2022/06/29 06:48:50;;;;;;;2.22;1.52;;;21.10;94.30;;;;;;5094952;27;45852;-70
2022/06/29 06:51:18;;;;;;;2.38;1.55;;;21.10;94.50;;;;;;5100878;27;45466;-70
2022/06/29 06:53:45;;;;;;;5.97;1.60;;;20.80;95.70;;;;;;5102297;27;45483;-71
2022/06/29 06:56:12;;;;;;;4.38;1.58;;;20.70;95.20;;;;;;5101885;27;46267;-70
2022/06/29 06:58:39;;;;;;;3.53;1.30;;;20.50;95.80;;;;;;5100907;27;45248;-70
2022/06/29 07:01:06;;;;;;;2.63;1.30;;;20.80;95.30;;;;;;5101765;27;45361;-70
2022/06/29 07:03:35;;;;;;;3.25;1.27;;;21.10;94.50;;;;;;5101673;27;45512;-71
2022/06/29 07:06:05;;;;;;;2.10;1.27;;;21.20;94.20;;;;;;5102131;27;48248;-70
2022/06/29 07:08:32;;;;;;;3.03;1.33;;;21.20;93.90;;;;;;5105671;27;45295;-70
2022/06/29 07:10:59;;;;;;;3.00;1.30;;;21.30;93.90;;;;;;5105151;27;45450;-71
2022/06/29 07:13:26;;;;;;;3.50;1.27;;;21.30;93.70;;;;;;5105872;27;45387;-70
2022/06/29 07:15:53;;;;;;;2.15;1.20;;;21.30;93.40;;;;;;5106006;27;47539;-72
2022/06/29 07:18:20;;;;;;;18.38;2.55;;;21.40;93.40;;;;;;5105346;27;45259;-73
2022/06/29 07:20:47;;;;;;;19.88;2.88;;;21.40;93.30;;;;;;5104804;27;45278;-71
2022/06/29 07:23:15;;;;;;;10.63;2.20;;;21.40;92.80;;;;;;5104623;27;45350;-71
2022/06/29 07:25:43;;;;;;;10.02;1.77;;;21.40;92.40;;;;;;5096695;27;45478;-71
2022/06/29 07:28:10;;;;;;;4.47;1.25;;;21.40;92.10;;;;;;5089094;27;45463;-70
2022/06/29 07:30:36;;;;;;;3.08;1.65;;;21.40;91.80;;;;;;5100724;27;45387;-70
2022/06/29 07:33:04;;;;;;;3.33;1.35;;;21.50;91.80;;;;;;5102190;27;45487;-71
2022/06/29 07:35:31;;;;;;;4.05;1.23;;;21.50;91.50;;;;;;5103130;27;46354;-71
2022/06/29 07:37:58;;;;;;;3.83;1.23;;;21.40;91.50;;;;;;5104430;27;45292;-72
2022/06/29 07:40:27;;;;;;;1.85;1.15;;;21.50;91.60;;;;;;5096204;27;45694;-70
2022/06/29 07:42:54;;;;;;;2.83;1.30;;;21.40;91.40;;;;;;5100280;27;45436;-71
2022/06/29 07:45:21;;;;;;;5.35;1.58;;;21.50;91.50;;;;;;5097155;27;46060;-71
2022/06/29 07:47:48;;;;;;;2.95;1.25;;;21.50;91.30;;;;;;5098361;27;45875;-71
2022/06/29 07:50:15;;;;;;;3.13;1.27;;;21.50;91.30;;;;;;5099479;27;45292;-72
2022/06/29 07:52:43;;;;;;;5.30;1.45;;;21.50;91.10;;;;;;5095195;27;45444;-71
2022/06/29 07:55:09;;;;;;;4.22;1.50;;;21.50;91.10;;;;;;5097090;27;47381;-70
2022/06/29 07:57:37;;;;;;;2.83;1.65;;;21.50;90.90;;;;;;5101162;27;45516;-70
2022/06/29 08:00:05;;;;;;;2.55;1.48;;;21.60;90.80;;;;;;5093718;27;45409;-71
2022/06/29 08:02:32;;;;;;;4.35;1.30;;;21.60;90.80;;;;;;5098185;27;45777;-71
2022/06/29 08:05:00;;;;;;;2.00;1.40;;;21.50;90.80;;;;;;5098149;27;46603;-70
2022/06/29 08:07:27;;;;;;;5.20;2.17;;;21.50;90.60;;;;;;5102695;27;45317;-70
2022/06/29 08:09:54;;;;;;;2.65;1.10;;;21.40;88.50;;;;;;5097322;27;45565;-70
2022/06/29 08:12:20;;;;;;;4.35;1.40;;;21.50;90.90;;;;;;5099723;27;45453;-71
2022/06/29 08:14:49;;;;;;;2.20;1.33;;;21.50;90.90;;;;;;5094566;27;45709;-71
2022/06/29 08:17:16;;;;;;;1.83;1.50;;;21.50;90.80;;;;;;5097305;27;45759;-71
2022/06/29 08:19:42;;;;;;;1.90;1.15;;;21.60;90.90;;;;;;5099535;27;45398;-71
2022/06/29 08:22:09;;;;;;;4.15;1.50;;;21.60;90.70;;;;;;5094316;27;45340;-71
2022/06/29 08:24:36;;;;;;;3.13;1.38;;;21.60;90.60;;;;;;5096130;27;46602;-71
2022/06/29 08:27:03;;;;;;;2.22;1.48;;;21.60;90.60;;;;;;5095051;27;45317;-71
2022/06/29 08:29:29;;;;;;;3.55;1.35;;;21.60;90.60;;;;;;5097622;27;45429;-71
2022/06/29 08:31:58;;;;;;;4.80;1.85;;;21.60;90.50;;;;;;5101444;27;45563;-71
2022/06/29 08:34:25;;;;;;;3.58;1.30;;;21.60;90.40;;;;;;5098576;27;47481;-71
2022/06/29 08:36:52;;;;;;;2.92;1.67;;;21.60;90.40;;;;;;5098982;27;45451;-71
2022/06/29 08:39:19;;;;;;;1.85;1.35;;;21.60;90.00;;;;;;5098885;27;45384;-71
2022/06/29 08:41:45;;;;;;;2.05;1.33;;;21.60;90.50;;;;;;5099029;27;45652;-71
2022/06/29 08:44:12;;;;;;;4.50;1.63;;;21.60;90.50;;;;;;5098970;27;47510;-71
2022/06/29 08:46:39;;;;;;;4.15;1.42;;;21.60;90.10;;;;;;5099925;27;45471;-70
2022/06/29 08:49:07;;;;;;;6.43;1.60;;;21.60;90.20;;;;;;5094879;27;45444;-71
2022/06/29 08:51:35;;;;;;;1.90;1.40;;;21.60;90.30;;;;;;5103757;27;45520;-71
2022/06/29 08:54:05;;;;;;;2.05;1.33;;;21.60;90.30;;;;;;5103229;27;46539;-71
2022/06/29 08:56:32;;;;;;;4.13;1.63;;;21.60;89.70;;;;;;5104286;27;45381;-71
2022/06/29 08:59:01;;;;;;;3.60;1.77;;;21.30;90.00;;;;;;5102524;27;45304;-71
2022/06/29 09:01:29;;;;;;;2.85;1.70;;;21.10;90.90;;;;;;5104254;27;45326;-71
2022/06/29 09:03:56;;;;;;;5.00;2.03;;;20.90;92.10;;;;;;5103536;27;45447;-72
2022/06/29 09:06:24;;;;;;;5.70;2.10;;;20.80;92.30;;;;;;5103995;27;45294;-71
2022/06/29 09:08:51;;;;;;;8.02;2.00;;;20.80;92.50;;;;;;5102915;27;45487;-71
2022/06/29 09:11:22;;;;;;;7.28;1.83;;;20.80;92.40;;;;;;5102880;27;45376;-71
2022/06/29 09:14:07;;;;;;;5.18;2.20;;;20.80;93.10;;;;;;5097593;27;48271;-70
2022/06/29 09:16:52;;;;;;;3.50;2.03;;;20.80;92.90;;;;;;5098296;27;45443;-72
2022/06/29 09:19:20;;;;;;;10.88;2.60;;;20.70;93.30;;;;;;5099556;27;45542;-71
2022/06/29 09:21:49;;;;;;;5.18;2.85;;;20.70;93.20;;;;;;5098656;27;45324;-71
2022/06/29 09:24:16;;;;;;;8.77;2.90;;;20.70;93.80;;;;;;5096433;27;47388;-71
2022/06/29 09:26:43;;;;;;;5.60;3.00;;;20.70;93.70;;;;;;5097422;27;45215;-71
2022/06/29 09:29:20;;;;;;;3.78;2.47;;;20.80;92.90;;;;;;5094886;27;45592;-71
2022/06/29 09:32:08;;;;;;;8.73;2.75;;;20.90;92.50;;;;;;5112034;27;45357;-71
2022/06/29 09:34:37;;;;;;;14.02;3.05;;;20.90;92.60;;;;;;5104573;27;46323;-71
2022/06/29 09:37:06;;;;;;;7.75;3.60;;;21.10;92.20;;;;;;5097548;27;45355;-72
2022/06/29 09:39:34;;;;;;;6.85;2.70;;;20.90;92.30;;;;;;5092494;27;45533;-71
2022/06/29 09:42:01;;;;;;;6.10;2.42;;;20.80;92.90;;;;;;5097053;27;45475;-71
2022/06/29 09:44:28;;;;;;;5.18;3.38;;;20.80;92.80;;;;;;5099662;27;48321;-71
2022/06/29 09:46:57;;;;;;;6.72;3.17;;;20.80;93.30;;;;;;5096562;27;45468;-71
2022/06/29 09:49:26;;;;;;;5.45;3.03;;;20.90;93.90;;;;;;5100014;27;45493;-71
2022/06/29 09:51:56;;;;;;;7.50;3.40;;;20.90;93.30;;;;;;5100833;27;45757;-71
2022/06/29 09:54:27;;;;;;;11.65;4.10;;;21.00;93.10;;;;;;5100621;27;45659;-72
2022/06/29 09:56:57;;;;;;;9.98;3.15;;;21.10;93.00;;;;;;5097335;27;45468;-72
2022/06/29 10:05:04;;;;;;;5.57;3.03;;;21.20;91.40;;;;;;5101130;27;45412;-71
2022/06/29 10:07:31;;;;;;;8.32;3.70;;;21.20;92.00;;;;;;5099904;27;45416;-71
2022/06/29 10:10:01;;;;;;;7.43;3.45;;;21.20;92.80;;;;;;5100485;27;45455;-71
2022/06/29 10:15:46;;;;;;;9.40;3.55;;;21.30;92.20;;;;;;5091748;27;45720;-71
2022/06/29 10:18:23;;;;;;;7.00;3.10;;;21.40;92.30;;;;;;5098501;27;45453;-71
2022/06/29 10:20:52;;;;;;;7.00;3.30;;;21.50;92.00;;;;;;5095803;27;45476;-72
2022/06/29 10:23:44;;;;;;;9.95;3.45;;;21.50;91.80;;;;;;5093904;27;45707;-73
2022/06/29 10:26:43;;;;;;;7.82;3.20;;;21.50;92.00;;;;;;5095367;27;47578;-71
2022/06/29 10:29:35;;;;;;;9.23;3.40;;;21.50;91.70;;;;;;5093626;27;45477;-70
2022/06/29 10:32:16;;;;;;;5.38;2.90;;;21.60;91.70;;;;;;5098159;27;45538;-71
2022/06/29 10:37:33;;;;;;;12.70;3.20;;;21.60;92.70;;;;;;5095332;27;45476;-70
2022/06/29 10:40:04;;;;;;;6.80;3.00;;;21.80;91.50;;;;;;5097326;27;45382;-70
2022/06/29 10:45:25;;;;;;;8.52;3.83;;;21.70;92.00;;;;;;5102981;27;45373;-71
2022/06/29 10:48:25;;;;;;;4.72;3.00;;;21.70;92.10;;;;;;5102604;27;45400;-71
2022/06/29 10:50:52;;;;;;;8.02;3.40;;;21.80;90.90;;;;;;5100850;27;45573;-71
2022/06/29 10:53:21;;;;;;;4.55;2.97;;;21.90;90.70;;;;;;5099763;27;45494;-71
2022/06/29 10:55:50;;;;;;;8.23;3.03;;;22.00;90.10;;;;;;5097798;27;45662;-71
2022/06/29 10:58:19;;;;;;;4.82;2.80;;;21.90;90.50;;;;;;5099506;27;46717;-72
2022/06/29 11:00:46;;;;;;;10.38;2.90;;;22.10;88.60;;;;;;5098721;27;45495;-71
2022/06/29 11:03:18;;;;;;;11.50;2.92;;;22.20;85.10;;;;;;5098475;27;45307;-72
2022/06/29 11:14:03;;;;;;;5.38;2.38;;;22.60;86.60;;;;;;5099501;27;45632;-71
2022/06/29 11:16:33;;;;;;;6.90;2.63;;;22.50;86.20;;;;;;5102981;27;45506;-71
2022/06/29 11:18:59;;;;;;;4.40;2.33;;;22.60;82.30;;;;;;5098841;27;45475;-71
2022/06/29 11:21:28;;;;;;;3.83;2.08;;;22.70;84.70;;;;;;5096808;27;45514;-71
2022/06/29 11:24:03;;;;;;;5.65;2.20;;;22.70;83.70;;;;;;5100194;27;45420;-71
2022/06/29 11:26:31;;;;;;;4.15;1.90;;;22.80;82.30;;;;;;5100951;27;45609;-71
2022/06/29 11:28:58;;;;;;;4.25;1.90;;;22.80;85.90;;;;;;5095855;27;45410;-70
2022/06/29 11:31:27;;;;;;;2.40;1.58;;;22.90;82.70;;;;;;5102848;27;45389;-69
2022/06/29 11:33:55;;;;;;;2.75;1.88;;;23.00;84.20;;;;;;5102822;27;45507;-71
2022/06/29 11:36:24;;;;;;;4.10;1.80;;;23.00;81.40;;;;;;5100537;27;45399;-71
2022/06/29 11:38:53;;;;;;;3.45;2.08;;;23.00;79.60;;;;;;5101852;27;48232;-72
2022/06/29 11:41:22;;;;;;;5.18;2.20;;;23.10;80.00;;;;;;5094017;27;45585;-71
2022/06/29 11:43:59;;;;;;;7.13;2.17;;;23.20;81.00;;;;;;5102002;27;45489;-71
2022/06/29 11:46:28;;;;;;;7.18;2.08;;;23.00;87.70;;;;;;5094724;27;45374;-71
2022/06/29 11:51:52;;;;;;;7.32;2.22;;;22.60;86.90;;;;;;5101861;27;45543;-71
2022/06/29 11:54:33;;;;;;;4.93;2.50;;;22.60;90.00;;;;;;5100913;27;45608;-71
2022/06/29 11:57:00;;;;;;;4.03;2.40;;;22.60;86.60;;;;;;5095063;27;45654;-70
2022/06/29 11:59:27;;;;;;;5.80;2.25;;;22.50;88.20;;;;;;5096934;27;46656;-71
2022/06/29 12:01:59;;;;;;;2.42;1.70;;;22.80;85.30;;;;;;5098783;27;45491;-71
2022/06/29 12:04:30;;;;;;;3.05;1.70;;;22.80;83.70;;;;;;5096024;27;45405;-71
2022/06/29 12:07:05;;;;;;;11.95;2.95;;;22.70;86.00;;;;;;5099041;27;45414;-71
2022/06/29 12:09:33;;;;;;;9.90;2.13;;;22.50;90.30;;;;;;5098164;27;47944;-70
2022/06/29 12:11:59;;;;;;;4.72;2.13;;;22.40;92.10;;;;;;5100904;27;45272;-71
2022/06/29 12:14:26;;;;;;;6.15;2.08;;;22.30;91.70;;;;;;5099678;27;45379;-71
2022/06/29 12:16:55;;;;;;;6.00;1.85;;;22.20;91.90;;;;;;5104896;27;45507;-71
2022/06/29 12:19:22;;;;;;;2.78;1.77;;;22.20;92.60;;;;;;5103568;27;45340;-71
2022/06/29 12:21:49;;;;;;;3.72;1.95;;;22.10;92.40;;;;;;5104628;27;45805;-71
2022/06/29 12:24:18;;;;;;;2.10;1.70;;;22.10;91.50;;;;;;5104782;27;45351;-72
2022/06/29 12:26:45;;;;;;;3.60;2.17;;;22.10;92.80;;;;;;5104322;27;45230;-71
2022/06/29 12:29:13;;;;;;;4.43;2.13;;;22.00;96.10;;;;;;5103340;27;45735;-71
2022/06/29 12:31:41;;;;;;;3.08;1.85;;;21.90;94.70;;;;;;5103395;27;45321;-71
2022/06/29 12:34:09;;;;;;;2.60;1.80;;;21.80;93.40;;;;;;5103930;27;45393;-71
2022/06/29 12:36:36;;;;;;;3.10;1.90;;;21.80;93.30;;;;;;5092453;27;45421;-72
2022/06/29 12:39:04;;;;;;;3.50;2.05;;;21.80;93.40;;;;;;5083221;27;48711;-71
2022/06/29 12:41:31;;;;;;;2.78;2.08;;;21.90;93.40;;;;;;5082946;27;45338;-70
2022/06/29 12:43:59;;;;;;;2.70;1.90;;;21.80;94.60;;;;;;5084228;27;45459;-70
2022/06/29 12:46:27;;;;;;;2.47;1.75;;;21.90;93.50;;;;;;5084379;28;45395;-71
2022/06/29 12:48:54;;;;;;;3.33;1.90;;;21.90;93.20;;;;;;5094840;27;46422;-71
2022/06/29 12:51:23;;;;;;;1.90;1.50;;;21.90;93.30;;;;;;5103429;27;45380;-71
2022/06/29 12:53:49;;;;;;;3.17;1.70;;;21.90;92.80;;;;;;5104142;27;45426;-71
2022/06/29 12:56:16;;;;;;;1.95;1.42;;;21.90;92.10;;;;;;5104647;27;45523;-70
2022/06/29 12:58:43;;;;;;;2.33;1.45;;;21.90;92.60;;;;;;5102154;27;48288;-71
2022/06/29 13:01:10;;;;;;;1.95;1.52;;;21.90;92.30;;;;;;5103971;27;45380;-71
2022/06/29 13:03:37;;;;;;;3.03;1.20;;;21.90;92.40;;;;;;5103955;27;45575;-71
2022/06/29 13:06:05;;;;;;;1.95;1.20;;;21.90;92.30;;;;;;5104439;27;45327;-71
2022/06/29 13:08:33;;;;;;;2.63;1.65;;;21.90;92.90;;;;;;5104414;27;47081;-71
2022/06/29 13:11:01;;;;;;;3.88;1.40;;;21.90;92.40;;;;;;5102905;27;45283;-71
2022/06/29 13:13:28;;;;;;;5.00;1.30;;;21.90;92.60;;;;;;5103963;27;45446;-71
2022/06/29 13:15:56;;;;;;;2.47;1.33;;;21.90;91.70;;;;;;5104424;27;45461;-71
2022/06/29 13:18:22;;;;;;;2.13;1.45;;;21.90;92.20;;;;;;5104001;27;47337;-71
2022/06/29 13:20:49;;;;;;;3.22;1.50;;;21.90;92.00;;;;;;5103140;27;45430;-71